sensor_id;sensor_type;location;lat;lon;timestamp;P1;durP1;ratioP1;P2;durP2;ratioP2
86304;SDS011;76964;49.316;7.118;2024-03-08T00:00:31;4.67;;;4.57;;
86304;SDS011;76964;49.316;7.118;2024-03-08T00:03:01;4.53;;;4.43;;
86304;SDS011;76964;49.316;7.118;2024-03-08T00:05:29;4.77;;;4.60;;
86304;SDS011;76964;49.316;7.118;2024-03-08T00:07:58;4.93;;;4.80;;
86304;SDS011;76964;49.316;7.118;2024-03-08T00:10:26;4.10;;;4.00;;
86304;SDS011;76964;49.316;7.118;2024-03-08T00:12:55;4.47;;;4.37;;
86304;SDS011;76964;49.316;7.118;2024-03-08T00:15:24;4.63;;;4.53;;
86304;SDS011;76964;49.316;7.118;2024-03-08T00:17:52;4.93;;;4.73;;
86304;SDS011;76964;49.316;7.118;2024-03-08T00:20:22;4.83;;;4.73;;
86304;SDS011;76964;49.316;7.118;2024-03-08T00:22:51;4.73;;;4.63;;
86304;SDS011;76964;49.316;7.118;2024-03-08T00:25:19;4.33;;;4.23;;
86304;SDS011;76964;49.316;7.118;2024-03-08T00:27:47;4.90;;;4.80;;
86304;SDS011;76964;49.316;7.118;2024-03-08T00:30:16;4.53;;;4.43;;
86304;SDS011;76964;49.316;7.118;2024-03-08T00:32:44;4.60;;;4.50;;
86304;SDS011;76964;49.316;7.118;2024-03-08T00:35:12;4.90;;;4.80;;
86304;SDS011;76964;49.316;7.118;2024-03-08T00:37:42;4.93;;;4.77;;
86304;SDS011;76964;49.316;7.118;2024-03-08T00:40:13;4.50;;;4.40;;
86304;SDS011;76964;49.316;7.118;2024-03-08T00:42:41;4.07;;;3.97;;
86304;SDS011;76964;49.316;7.118;2024-03-08T00:45:10;4.37;;;4.27;;
86304;SDS011;76964;49.316;7.118;2024-03-08T00:47:38;4.37;;;4.27;;
86304;SDS011;76964;49.316;7.118;2024-03-08T00:50:09;4.90;;;4.80;;
86304;SDS011;76964;49.316;7.118;2024-03-08T00:52:37;5.00;;;4.90;;
86304;SDS011;76964;49.316;7.118;2024-03-08T00:55:07;4.67;;;4.57;;
86304;SDS011;76964;49.316;7.118;2024-03-08T00:57:37;4.70;;;4.60;;
86304;SDS011;76964;49.316;7.118;2024-03-08T01:00:06;4.63;;;4.53;;
86304;SDS011;76964;49.316;7.118;2024-03-08T01:02:38;4.50;;;4.40;;
86304;SDS011;76964;49.316;7.118;2024-03-08T01:05:07;4.90;;;4.70;;
86304;SDS011;76964;49.316;7.118;2024-03-08T01:07:36;4.50;;;4.40;;
86304;SDS011;76964;49.316;7.118;2024-03-08T01:10:04;4.50;;;4.40;;
86304;SDS011;76964;49.316;7.118;2024-03-08T01:12:37;4.20;;;4.10;;
86304;SDS011;76964;49.316;7.118;2024-03-08T01:15:06;4.43;;;4.33;;
86304;SDS011;76964;49.316;7.118;2024-03-08T01:17:34;4.43;;;4.33;;
86304;SDS011;76964;49.316;7.118;2024-03-08T01:20:03;4.70;;;4.60;;
86304;SDS011;76964;49.316;7.118;2024-03-08T01:22:32;4.30;;;4.20;;
86304;SDS011;76964;49.316;7.118;2024-03-08T01:25:00;4.53;;;4.43;;
86304;SDS011;76964;49.316;7.118;2024-03-08T01:27:32;4.40;;;4.30;;
86304;SDS011;76964;49.316;7.118;2024-03-08T01:30:01;4.70;;;4.60;;
86304;SDS011;76964;49.316;7.118;2024-03-08T01:32:31;4.73;;;4.63;;
86304;SDS011;76964;49.316;7.118;2024-03-08T01:35:00;5.30;;;5.10;;
86304;SDS011;76964;49.316;7.118;2024-03-08T01:37:29;4.60;;;4.50;;
86304;SDS011;76964;49.316;7.118;2024-03-08T01:39:57;5.07;;;4.97;;
86304;SDS011;76964;49.316;7.118;2024-03-08T01:42:25;4.63;;;4.53;;
86304;SDS011;76964;49.316;7.118;2024-03-08T01:44:55;5.03;;;4.83;;
86304;SDS011;76964;49.316;7.118;2024-03-08T01:47:23;4.60;;;4.50;;
86304;SDS011;76964;49.316;7.118;2024-03-08T01:49:51;5.13;;;5.00;;
86304;SDS011;76964;49.316;7.118;2024-03-08T01:52:20;4.60;;;4.50;;
86304;SDS011;76964;49.316;7.118;2024-03-08T01:54:50;4.70;;;4.60;;
86304;SDS011;76964;49.316;7.118;2024-03-08T01:57:18;4.20;;;4.10;;
86304;SDS011;76964;49.316;7.118;2024-03-08T01:59:46;4.70;;;4.60;;
86304;SDS011;76964;49.316;7.118;2024-03-08T02:02:16;4.50;;;4.40;;
86304;SDS011;76964;49.316;7.118;2024-03-08T02:04:46;4.50;;;4.40;;
86304;SDS011;76964;49.316;7.118;2024-03-08T02:07:14;5.17;;;4.97;;
86304;SDS011;76964;49.316;7.118;2024-03-08T02:09:42;5.13;;;5.03;;
86304;SDS011;76964;49.316;7.118;2024-03-08T02:12:10;4.53;;;4.43;;
86304;SDS011;76964;49.316;7.118;2024-03-08T02:14:39;4.60;;;4.50;;
86304;SDS011;76964;49.316;7.118;2024-03-08T02:17:07;4.57;;;4.47;;
86304;SDS011;76964;49.316;7.118;2024-03-08T02:19:36;4.60;;;4.50;;
86304;SDS011;76964;49.316;7.118;2024-03-08T02:22:06;4.80;;;4.70;;
86304;SDS011;76964;49.316;7.118;2024-03-08T02:24:35;4.97;;;4.77;;
86304;SDS011;76964;49.316;7.118;2024-03-08T02:27:04;4.97;;;4.87;;
86304;SDS011;76964;49.316;7.118;2024-03-08T02:29:33;5.00;;;4.90;;
86304;SDS011;76964;49.316;7.118;2024-03-08T02:32:02;4.60;;;4.50;;
86304;SDS011;76964;49.316;7.118;2024-03-08T02:34:31;4.60;;;4.50;;
86304;SDS011;76964;49.316;7.118;2024-03-08T02:37:01;5.00;;;4.80;;
86304;SDS011;76964;49.316;7.118;2024-03-08T02:39:31;5.00;;;4.90;;
86304;SDS011;76964;49.316;7.118;2024-03-08T02:41:59;4.80;;;4.70;;
86304;SDS011;76964;49.316;7.118;2024-03-08T02:44:28;4.37;;;4.27;;
86304;SDS011;76964;49.316;7.118;2024-03-08T02:46:56;4.47;;;4.37;;
86304;SDS011;76964;49.316;7.118;2024-03-08T02:49:24;4.87;;;4.77;;
86304;SDS011;76964;49.316;7.118;2024-03-08T02:51:53;4.40;;;4.30;;
86304;SDS011;76964;49.316;7.118;2024-03-08T02:54:23;5.10;;;4.90;;
86304;SDS011;76964;49.316;7.118;2024-03-08T02:56:52;4.70;;;4.60;;
86304;SDS011;76964;49.316;7.118;2024-03-08T02:59:20;4.83;;;4.73;;
86304;SDS011;76964;49.316;7.118;2024-03-08T03:01:50;4.57;;;4.47;;
86304;SDS011;76964;49.316;7.118;2024-03-08T03:04:18;4.90;;;4.80;;
86304;SDS011;76964;49.316;7.118;2024-03-08T03:06:46;4.83;;;4.70;;
86304;SDS011;76964;49.316;7.118;2024-03-08T03:09:14;4.77;;;4.67;;
86304;SDS011;76964;49.316;7.118;2024-03-08T03:11:44;4.67;;;4.57;;
86304;SDS011;76964;49.316;7.118;2024-03-08T03:14:13;4.43;;;4.33;;
86304;SDS011;76964;49.316;7.118;2024-03-08T03:16:42;4.47;;;4.37;;
86304;SDS011;76964;49.316;7.118;2024-03-08T03:19:10;4.97;;;4.87;;
86304;SDS011;76964;49.316;7.118;2024-03-08T03:21:38;4.97;;;4.87;;
86304;SDS011;76964;49.316;7.118;2024-03-08T03:24:06;4.93;;;4.83;;
86304;SDS011;76964;49.316;7.118;2024-03-08T03:26:37;5.00;;;4.90;;
86304;SDS011;76964;49.316;7.118;2024-03-08T03:29:07;5.03;;;4.90;;
86304;SDS011;76964;49.316;7.118;2024-03-08T03:31:36;5.00;;;4.90;;
86304;SDS011;76964;49.316;7.118;2024-03-08T03:34:06;5.20;;;5.00;;
86304;SDS011;76964;49.316;7.118;2024-03-08T03:36:35;5.23;;;5.13;;
86304;SDS011;76964;49.316;7.118;2024-03-08T03:39:04;4.83;;;4.73;;
86304;SDS011;76964;49.316;7.118;2024-03-08T03:41:37;4.60;;;4.50;;
86304;SDS011;76964;49.316;7.118;2024-03-08T03:44:05;4.40;;;4.30;;
86304;SDS011;76964;49.316;7.118;2024-03-08T03:46:34;4.77;;;4.67;;
86304;SDS011;76964;49.316;7.118;2024-03-08T03:49:03;4.43;;;4.30;;
86304;SDS011;76964;49.316;7.118;2024-03-08T03:51:31;4.90;;;4.80;;
86304;SDS011;76964;49.316;7.118;2024-03-08T03:53:59;4.97;;;4.87;;
86304;SDS011;76964;49.316;7.118;2024-03-08T03:56:30;5.63;;;5.43;;
86304;SDS011;76964;49.316;7.118;2024-03-08T03:58:58;4.53;;;4.43;;
86304;SDS011;76964;49.316;7.118;2024-03-08T04:01:26;5.00;;;4.90;;
86304;SDS011;76964;49.316;7.118;2024-03-08T04:03:55;4.67;;;4.57;;
86304;SDS011;76964;49.316;7.118;2024-03-08T04:06:24;5.03;;;4.90;;
86304;SDS011;76964;49.316;7.118;2024-03-08T04:08:52;5.17;;;4.97;;
86304;SDS011;76964;49.316;7.118;2024-03-08T04:11:21;5.53;;;5.33;;
86304;SDS011;76964;49.316;7.118;2024-03-08T04:13:49;5.30;;;5.10;;
86304;SDS011;76964;49.316;7.118;2024-03-08T04:16:19;4.73;;;4.63;;
86304;SDS011;76964;49.316;7.118;2024-03-08T04:18:47;4.87;;;4.77;;
86304;SDS011;76964;49.316;7.118;2024-03-08T04:21:15;4.70;;;4.60;;
86304;SDS011;76964;49.316;7.118;2024-03-08T04:23:45;5.30;;;5.10;;
86304;SDS011;76964;49.316;7.118;2024-03-08T04:26:13;5.40;;;5.20;;
86304;SDS011;76964;49.316;7.118;2024-03-08T04:28:44;5.40;;;5.20;;
86304;SDS011;76964;49.316;7.118;2024-03-08T04:31:13;4.70;;;4.60;;
86304;SDS011;76964;49.316;7.118;2024-03-08T04:33:43;4.87;;;4.77;;
86304;SDS011;76964;49.316;7.118;2024-03-08T04:36:12;5.20;;;5.00;;
86304;SDS011;76964;49.316;7.118;2024-03-08T04:38:40;5.60;;;5.40;;
86304;SDS011;76964;49.316;7.118;2024-03-08T04:41:10;5.30;;;5.10;;
86304;SDS011;76964;49.316;7.118;2024-03-08T04:43:42;5.27;;;5.07;;
86304;SDS011;76964;49.316;7.118;2024-03-08T04:46:10;5.00;;;4.80;;
86304;SDS011;76964;49.316;7.118;2024-03-08T04:48:38;4.90;;;4.80;;
86304;SDS011;76964;49.316;7.118;2024-03-08T04:51:08;5.10;;;4.90;;
86304;SDS011;76964;49.316;7.118;2024-03-08T04:53:37;4.67;;;4.57;;
86304;SDS011;76964;49.316;7.118;2024-03-08T04:56:05;5.23;;;5.03;;
86304;SDS011;76964;49.316;7.118;2024-03-08T04:58:36;5.13;;;5.03;;
86304;SDS011;76964;49.316;7.118;2024-03-08T05:01:04;5.17;;;5.00;;
86304;SDS011;76964;49.316;7.118;2024-03-08T05:03:32;4.77;;;4.67;;
86304;SDS011;76964;49.316;7.118;2024-03-08T05:06:01;4.90;;;4.80;;
86304;SDS011;76964;49.316;7.118;2024-03-08T05:08:30;5.17;;;5.00;;
86304;SDS011;76964;49.316;7.118;2024-03-08T05:10:59;5.30;;;5.10;;
86304;SDS011;76964;49.316;7.118;2024-03-08T05:13:30;4.87;;;4.77;;
86304;SDS011;76964;49.316;7.118;2024-03-08T05:15:59;5.20;;;5.10;;
86304;SDS011;76964;49.316;7.118;2024-03-08T05:18:27;5.80;;;5.60;;
86304;SDS011;76964;49.316;7.118;2024-03-08T05:20:58;5.50;;;5.30;;
86304;SDS011;76964;49.316;7.118;2024-03-08T05:23:27;5.10;;;5.00;;
86304;SDS011;76964;49.316;7.118;2024-03-08T05:25:55;5.53;;;5.33;;
86304;SDS011;76964;49.316;7.118;2024-03-08T05:28:23;5.43;;;5.23;;
86304;SDS011;76964;49.316;7.118;2024-03-08T05:30:51;5.47;;;5.27;;
86304;SDS011;76964;49.316;7.118;2024-03-08T05:33:24;4.83;;;4.73;;
86304;SDS011;76964;49.316;7.118;2024-03-08T05:35:53;5.27;;;5.07;;
86304;SDS011;76964;49.316;7.118;2024-03-08T05:38:21;5.37;;;5.13;;
86304;SDS011;76964;49.316;7.118;2024-03-08T05:40:49;4.77;;;4.67;;
86304;SDS011;76964;49.316;7.118;2024-03-08T05:43:17;5.50;;;5.30;;
86304;SDS011;76964;49.316;7.118;2024-03-08T05:45:46;5.27;;;5.07;;
86304;SDS011;76964;49.316;7.118;2024-03-08T05:48:14;4.90;;;4.80;;
86304;SDS011;76964;49.316;7.118;2024-03-08T05:50:44;4.80;;;4.70;;
86304;SDS011;76964;49.316;7.118;2024-03-08T05:53:13;4.93;;;4.83;;
86304;SDS011;76964;49.316;7.118;2024-03-08T05:55:41;5.27;;;5.17;;
86304;SDS011;76964;49.316;7.118;2024-03-08T05:58:09;5.30;;;5.10;;
86304;SDS011;76964;49.316;7.118;2024-03-08T06:00:37;5.40;;;5.10;;
86304;SDS011;76964;49.316;7.118;2024-03-08T06:03:06;4.73;;;4.63;;
86304;SDS011;76964;49.316;7.118;2024-03-08T06:05:34;4.70;;;4.60;;
86304;SDS011;76964;49.316;7.118;2024-03-08T06:08:09;5.60;;;5.30;;
86304;SDS011;76964;49.316;7.118;2024-03-08T06:10:38;4.90;;;4.80;;
86304;SDS011;76964;49.316;7.118;2024-03-08T06:13:06;4.90;;;4.80;;
86304;SDS011;76964;49.316;7.118;2024-03-08T06:15:34;5.67;;;5.47;;
86304;SDS011;76964;49.316;7.118;2024-03-08T06:18:02;5.00;;;4.90;;
86304;SDS011;76964;49.316;7.118;2024-03-08T06:20:32;5.30;;;5.20;;
86304;SDS011;76964;49.316;7.118;2024-03-08T06:23:00;4.83;;;4.73;;
86304;SDS011;76964;49.316;7.118;2024-03-08T06:25:30;4.70;;;4.60;;
86304;SDS011;76964;49.316;7.118;2024-03-08T06:27:58;5.30;;;5.10;;
86304;SDS011;76964;49.316;7.118;2024-03-08T06:30:26;5.63;;;5.43;;
86304;SDS011;76964;49.316;7.118;2024-03-08T06:32:54;5.47;;;5.23;;
86304;SDS011;76964;49.316;7.118;2024-03-08T06:35:22;5.37;;;5.17;;
86304;SDS011;76964;49.316;7.118;2024-03-08T06:37:50;5.20;;;5.10;;
86304;SDS011;76964;49.316;7.118;2024-03-08T06:40:18;4.97;;;4.87;;
86304;SDS011;76964;49.316;7.118;2024-03-08T06:42:48;4.83;;;4.63;;
86304;SDS011;76964;49.316;7.118;2024-03-08T06:45:18;5.40;;;5.20;;
86304;SDS011;76964;49.316;7.118;2024-03-08T06:47:47;5.40;;;5.20;;
86304;SDS011;76964;49.316;7.118;2024-03-08T06:50:16;5.07;;;4.93;;
86304;SDS011;76964;49.316;7.118;2024-03-08T06:52:44;5.03;;;4.83;;
86304;SDS011;76964;49.316;7.118;2024-03-08T06:55:17;5.00;;;4.90;;
86304;SDS011;76964;49.316;7.118;2024-03-08T06:57:45;5.43;;;5.23;;
86304;SDS011;76964;49.316;7.118;2024-03-08T07:00:15;5.43;;;5.33;;
86304;SDS011;76964;49.316;7.118;2024-03-08T07:02:47;5.50;;;5.30;;
86304;SDS011;76964;49.316;7.118;2024-03-08T07:05:16;5.47;;;5.27;;
86304;SDS011;76964;49.316;7.118;2024-03-08T07:07:44;4.90;;;4.80;;
86304;SDS011;76964;49.316;7.118;2024-03-08T07:10:14;5.37;;;5.17;;
86304;SDS011;76964;49.316;7.118;2024-03-08T07:12:43;5.13;;;4.93;;
86304;SDS011;76964;49.316;7.118;2024-03-08T07:15:11;5.50;;;5.30;;
86304;SDS011;76964;49.316;7.118;2024-03-08T07:17:43;5.83;;;5.63;;
86304;SDS011;76964;49.316;7.118;2024-03-08T07:20:11;5.07;;;4.87;;
86304;SDS011;76964;49.316;7.118;2024-03-08T07:22:40;5.13;;;4.93;;
86304;SDS011;76964;49.316;7.118;2024-03-08T07:25:12;5.10;;;5.00;;
86304;SDS011;76964;49.316;7.118;2024-03-08T07:27:47;5.10;;;5.00;;
86304;SDS011;76964;49.316;7.118;2024-03-08T07:30:16;5.63;;;5.43;;
86304;SDS011;76964;49.316;7.118;2024-03-08T07:32:59;5.30;;;5.20;;
86304;SDS011;76964;49.316;7.118;2024-03-08T07:35:29;5.00;;;4.90;;
86304;SDS011;76964;49.316;7.118;2024-03-08T07:37:57;5.17;;;4.97;;
86304;SDS011;76964;49.316;7.118;2024-03-08T07:40:26;5.80;;;5.60;;
86304;SDS011;76964;49.316;7.118;2024-03-08T07:42:54;5.47;;;5.27;;
86304;SDS011;76964;49.316;7.118;2024-03-08T07:45:23;5.30;;;5.10;;
86304;SDS011;76964;49.316;7.118;2024-03-08T07:47:51;5.33;;;5.23;;
86304;SDS011;76964;49.316;7.118;2024-03-08T07:50:21;5.27;;;5.07;;
86304;SDS011;76964;49.316;7.118;2024-03-08T07:52:49;5.10;;;4.90;;
86304;SDS011;76964;49.316;7.118;2024-03-08T07:55:17;4.80;;;4.70;;
86304;SDS011;76964;49.316;7.118;2024-03-08T07:57:45;4.90;;;4.80;;
86304;SDS011;76964;49.316;7.118;2024-03-08T08:00:15;5.03;;;4.93;;
86304;SDS011;76964;49.316;7.118;2024-03-08T08:02:45;5.50;;;5.30;;
86304;SDS011;76964;49.316;7.118;2024-03-08T08:05:13;5.73;;;5.53;;
86304;SDS011;76964;49.316;7.118;2024-03-08T08:07:43;5.13;;;4.97;;
86304;SDS011;76964;49.316;7.118;2024-03-08T08:10:15;6.03;;;5.73;;
86304;SDS011;76964;49.316;7.118;2024-03-08T08:12:45;4.87;;;4.77;;
86304;SDS011;76964;49.316;7.118;2024-03-08T08:15:13;5.57;;;5.37;;
86304;SDS011;76964;49.316;7.118;2024-03-08T08:17:42;5.17;;;5.07;;
86304;SDS011;76964;49.316;7.118;2024-03-08T08:20:10;5.37;;;5.17;;
86304;SDS011;76964;49.316;7.118;2024-03-08T08:22:39;5.30;;;5.10;;
86304;SDS011;76964;49.316;7.118;2024-03-08T08:25:10;5.23;;;5.10;;
86304;SDS011;76964;49.316;7.118;2024-03-08T08:27:40;5.13;;;5.03;;
86304;SDS011;76964;49.316;7.118;2024-03-08T08:30:09;5.30;;;5.10;;
86304;SDS011;76964;49.316;7.118;2024-03-08T08:32:38;5.23;;;5.07;;
86304;SDS011;76964;49.316;7.118;2024-03-08T08:35:06;5.57;;;5.37;;
86304;SDS011;76964;49.316;7.118;2024-03-08T08:37:38;4.60;;;4.50;;
86304;SDS011;76964;49.316;7.118;2024-03-08T08:40:07;5.33;;;5.13;;
86304;SDS011;76964;49.316;7.118;2024-03-08T08:42:38;5.00;;;4.90;;
86304;SDS011;76964;49.316;7.118;2024-03-08T08:45:06;5.80;;;5.50;;
86304;SDS011;76964;49.316;7.118;2024-03-08T08:47:43;5.30;;;5.10;;
86304;SDS011;76964;49.316;7.118;2024-03-08T08:50:12;5.30;;;5.10;;
86304;SDS011;76964;49.316;7.118;2024-03-08T08:52:40;5.27;;;5.07;;
86304;SDS011;76964;49.316;7.118;2024-03-08T08:55:10;5.30;;;5.20;;
86304;SDS011;76964;49.316;7.118;2024-03-08T08:57:42;4.87;;;4.77;;
86304;SDS011;76964;49.316;7.118;2024-03-08T09:00:11;5.60;;;5.40;;
86304;SDS011;76964;49.316;7.118;2024-03-08T09:02:42;5.50;;;5.30;;
86304;SDS011;76964;49.316;7.118;2024-03-08T09:05:10;4.80;;;4.70;;
86304;SDS011;76964;49.316;7.118;2024-03-08T09:07:39;5.07;;;4.87;;
86304;SDS011;76964;49.316;7.118;2024-03-08T09:10:07;4.87;;;4.77;;
86304;SDS011;76964;49.316;7.118;2024-03-08T09:12:39;5.10;;;4.90;;
86304;SDS011;76964;49.316;7.118;2024-03-08T09:15:08;4.90;;;4.80;;
86304;SDS011;76964;49.316;7.118;2024-03-08T09:17:38;5.40;;;5.20;;
86304;SDS011;76964;49.316;7.118;2024-03-08T09:20:08;4.90;;;4.80;;
86304;SDS011;76964;49.316;7.118;2024-03-08T09:22:43;5.00;;;4.90;;
86304;SDS011;76964;49.316;7.118;2024-03-08T09:25:11;5.70;;;5.50;;
86304;SDS011;76964;49.316;7.118;2024-03-08T09:27:39;5.03;;;4.93;;
86304;SDS011;76964;49.316;7.118;2024-03-08T09:30:09;5.03;;;4.87;;
86304;SDS011;76964;49.316;7.118;2024-03-08T09:32:39;5.23;;;5.03;;
86304;SDS011;76964;49.316;7.118;2024-03-08T09:35:10;5.13;;;5.03;;
86304;SDS011;76964;49.316;7.118;2024-03-08T09:37:38;5.30;;;5.10;;
86304;SDS011;76964;49.316;7.118;2024-03-08T09:40:06;5.53;;;5.13;;
86304;SDS011;76964;49.316;7.118;2024-03-08T09:42:37;5.70;;;5.50;;
86304;SDS011;76964;49.316;7.118;2024-03-08T09:45:05;6.07;;;5.77;;
86304;SDS011;76964;49.316;7.118;2024-03-08T09:47:38;5.73;;;5.53;;
86304;SDS011;76964;49.316;7.118;2024-03-08T09:50:08;6.20;;;5.90;;
86304;SDS011;76964;49.316;7.118;2024-03-08T09:52:39;6.00;;;5.80;;
86304;SDS011;76964;49.316;7.118;2024-03-08T09:55:07;5.67;;;5.47;;
86304;SDS011;76964;49.316;7.118;2024-03-08T09:57:37;5.70;;;5.30;;
86304;SDS011;76964;49.316;7.118;2024-03-08T10:00:07;5.53;;;5.33;;
86304;SDS011;76964;49.316;7.118;2024-03-08T10:02:50;5.50;;;5.30;;
86304;SDS011;76964;49.316;7.118;2024-03-08T10:05:20;5.87;;;5.47;;
86304;SDS011;76964;49.316;7.118;2024-03-08T10:07:49;5.70;;;5.40;;
86304;SDS011;76964;49.316;7.118;2024-03-08T10:10:17;5.80;;;5.60;;
86304;SDS011;76964;49.316;7.118;2024-03-08T10:12:46;5.57;;;5.37;;
86304;SDS011;76964;49.316;7.118;2024-03-08T10:15:17;5.50;;;5.30;;
86304;SDS011;76964;49.316;7.118;2024-03-08T10:17:46;5.00;;;4.80;;
86304;SDS011;76964;49.316;7.118;2024-03-08T10:20:15;5.97;;;5.60;;
86304;SDS011;76964;49.316;7.118;2024-03-08T10:22:44;6.00;;;5.80;;
86304;SDS011;76964;49.316;7.118;2024-03-08T10:25:32;5.50;;;5.30;;
86304;SDS011;76964;49.316;7.118;2024-03-08T10:28:02;5.20;;;5.00;;
86304;SDS011;76964;49.316;7.118;2024-03-08T10:30:33;5.33;;;5.13;;
86304;SDS011;76964;49.316;7.118;2024-03-08T10:33:01;5.70;;;5.50;;
86304;SDS011;76964;49.316;7.118;2024-03-08T10:35:31;5.13;;;4.93;;
86304;SDS011;76964;49.316;7.118;2024-03-08T10:37:59;5.33;;;5.13;;
86304;SDS011;76964;49.316;7.118;2024-03-08T10:40:34;5.50;;;5.20;;
86304;SDS011;76964;49.316;7.118;2024-03-08T10:43:06;5.30;;;5.20;;
86304;SDS011;76964;49.316;7.118;2024-03-08T10:45:47;5.07;;;4.87;;
86304;SDS011;76964;49.316;7.118;2024-03-08T10:48:20;5.47;;;5.27;;
86304;SDS011;76964;49.316;7.118;2024-03-08T10:51:03;5.00;;;4.83;;
86304;SDS011;76964;49.316;7.118;2024-03-08T10:53:33;5.50;;;5.30;;
86304;SDS011;76964;49.316;7.118;2024-03-08T10:56:03;4.77;;;4.67;;
86304;SDS011;76964;49.316;7.118;2024-03-08T10:58:33;5.00;;;4.80;;
86304;SDS011;76964;49.316;7.118;2024-03-08T11:01:06;5.20;;;5.00;;
86304;SDS011;76964;49.316;7.118;2024-03-08T11:03:44;5.77;;;5.47;;
86304;SDS011;76964;49.316;7.118;2024-03-08T11:06:16;5.33;;;5.03;;
86304;SDS011;76964;49.316;7.118;2024-03-08T11:08:48;6.13;;;5.63;;
86304;SDS011;76964;49.316;7.118;2024-03-08T11:11:23;5.90;;;5.50;;
86304;SDS011;76964;49.316;7.118;2024-03-08T11:14:02;5.67;;;5.37;;
86304;SDS011;76964;49.316;7.118;2024-03-08T11:16:39;6.40;;;6.00;;
86304;SDS011;76964;49.316;7.118;2024-03-08T11:22:01;7.17;;;6.43;;
86304;SDS011;76964;49.316;7.118;2024-03-08T11:24:37;6.23;;;5.80;;
86304;SDS011;76964;49.316;7.118;2024-03-08T11:27:07;6.37;;;5.80;;
86304;SDS011;76964;49.316;7.118;2024-03-08T11:29:36;6.27;;;5.90;;
86304;SDS011;76964;49.316;7.118;2024-03-08T11:32:11;5.93;;;5.53;;
86304;SDS011;76964;49.316;7.118;2024-03-08T11:34:42;6.90;;;6.30;;
86304;SDS011;76964;49.316;7.118;2024-03-08T11:37:13;6.70;;;6.10;;
86304;SDS011;76964;49.316;7.118;2024-03-08T11:39:46;6.40;;;6.00;;
86304;SDS011;76964;49.316;7.118;2024-03-08T11:42:15;6.43;;;5.90;;
86304;SDS011;76964;49.316;7.118;2024-03-08T11:44:44;6.60;;;6.07;;
86304;SDS011;76964;49.316;7.118;2024-03-08T11:47:15;6.30;;;5.90;;
86304;SDS011;76964;49.316;7.118;2024-03-08T11:49:44;6.50;;;5.90;;
86304;SDS011;76964;49.316;7.118;2024-03-08T11:52:15;6.20;;;5.80;;
86304;SDS011;76964;49.316;7.118;2024-03-08T11:54:47;6.57;;;6.00;;
86304;SDS011;76964;49.316;7.118;2024-03-08T11:57:20;6.00;;;5.53;;
86304;SDS011;76964;49.316;7.118;2024-03-08T11:59:50;6.50;;;6.03;;
86304;SDS011;76964;49.316;7.118;2024-03-08T12:02:24;6.33;;;5.83;;
86304;SDS011;76964;49.316;7.118;2024-03-08T12:04:57;6.73;;;6.13;;
86304;SDS011;76964;49.316;7.118;2024-03-08T12:07:30;6.10;;;5.70;;
86304;SDS011;76964;49.316;7.118;2024-03-08T12:10:14;6.10;;;5.63;;
86304;SDS011;76964;49.316;7.118;2024-03-08T12:12:44;6.60;;;6.00;;
86304;SDS011;76964;49.316;7.118;2024-03-08T12:15:14;6.27;;;5.77;;
86304;SDS011;76964;49.316;7.118;2024-03-08T12:17:46;6.37;;;5.87;;
86304;SDS011;76964;49.316;7.118;2024-03-08T12:20:16;6.57;;;6.07;;
86304;SDS011;76964;49.316;7.118;2024-03-08T12:22:44;6.20;;;5.80;;
86304;SDS011;76964;49.316;7.118;2024-03-08T12:25:13;6.57;;;6.07;;
86304;SDS011;76964;49.316;7.118;2024-03-08T12:27:43;6.30;;;5.80;;
86304;SDS011;76964;49.316;7.118;2024-03-08T12:30:16;5.87;;;5.47;;
86304;SDS011;76964;49.316;7.118;2024-03-08T12:32:49;6.20;;;5.70;;
86304;SDS011;76964;49.316;7.118;2024-03-08T12:35:20;6.57;;;6.07;;
86304;SDS011;76964;49.316;7.118;2024-03-08T12:37:50;6.40;;;5.90;;
86304;SDS011;76964;49.316;7.118;2024-03-08T12:40:25;6.00;;;5.70;;
86304;SDS011;76964;49.316;7.118;2024-03-08T12:42:55;6.30;;;5.80;;
86304;SDS011;76964;49.316;7.118;2024-03-08T12:45:23;6.10;;;5.70;;
86304;SDS011;76964;49.316;7.118;2024-03-08T12:47:52;5.50;;;5.20;;
86304;SDS011;76964;49.316;7.118;2024-03-08T12:50:21;6.13;;;5.73;;
86304;SDS011;76964;49.316;7.118;2024-03-08T12:52:51;6.50;;;5.90;;
86304;SDS011;76964;49.316;7.118;2024-03-08T12:55:20;6.17;;;5.77;;
86304;SDS011;76964;49.316;7.118;2024-03-08T12:57:48;6.10;;;5.70;;
86304;SDS011;76964;49.316;7.118;2024-03-08T13:00:16;5.57;;;5.17;;
86304;SDS011;76964;49.316;7.118;2024-03-08T13:02:46;6.30;;;5.90;;
86304;SDS011;76964;49.316;7.118;2024-03-08T13:05:17;6.23;;;5.73;;
86304;SDS011;76964;49.316;7.118;2024-03-08T13:07:46;6.80;;;6.20;;
86304;SDS011;76964;49.316;7.118;2024-03-08T13:10:15;6.00;;;5.60;;
86304;SDS011;76964;49.316;7.118;2024-03-08T13:12:47;6.10;;;5.70;;
86304;SDS011;76964;49.316;7.118;2024-03-08T13:15:20;6.00;;;5.60;;
86304;SDS011;76964;49.316;7.118;2024-03-08T13:17:48;5.70;;;5.30;;
86304;SDS011;76964;49.316;7.118;2024-03-08T13:20:19;6.10;;;5.60;;
86304;SDS011;76964;49.316;7.118;2024-03-08T13:22:59;5.97;;;5.57;;
86304;SDS011;76964;49.316;7.118;2024-03-08T13:25:28;5.80;;;5.40;;
86304;SDS011;76964;49.316;7.118;2024-03-08T13:27:56;5.53;;;5.17;;
86304;SDS011;76964;49.316;7.118;2024-03-08T13:30:26;5.10;;;4.80;;
86304;SDS011;76964;49.316;7.118;2024-03-08T13:32:55;6.03;;;5.63;;
86304;SDS011;76964;49.316;7.118;2024-03-08T13:35:24;5.70;;;5.20;;
86304;SDS011;76964;49.316;7.118;2024-03-08T13:37:54;5.90;;;5.30;;
86304;SDS011;76964;49.316;7.118;2024-03-08T13:40:22;6.03;;;5.60;;
86304;SDS011;76964;49.316;7.118;2024-03-08T13:42:50;5.60;;;5.20;;
86304;SDS011;76964;49.316;7.118;2024-03-08T13:45:19;5.43;;;5.03;;
86304;SDS011;76964;49.316;7.118;2024-03-08T13:47:51;5.60;;;5.30;;
86304;SDS011;76964;49.316;7.118;2024-03-08T13:50:21;5.93;;;5.53;;
86304;SDS011;76964;49.316;7.118;2024-03-08T13:52:51;5.33;;;5.13;;
86304;SDS011;76964;49.316;7.118;2024-03-08T13:55:22;5.40;;;5.10;;
86304;SDS011;76964;49.316;7.118;2024-03-08T13:57:52;5.60;;;5.20;;
86304;SDS011;76964;49.316;7.118;2024-03-08T14:00:20;5.67;;;5.33;;
86304;SDS011;76964;49.316;7.118;2024-03-08T14:02:52;5.27;;;4.97;;
86304;SDS011;76964;49.316;7.118;2024-03-08T14:05:20;5.53;;;5.23;;
86304;SDS011;76964;49.316;7.118;2024-03-08T14:07:49;6.10;;;5.70;;
86304;SDS011;76964;49.316;7.118;2024-03-08T14:10:22;5.57;;;5.20;;
86304;SDS011;76964;49.316;7.118;2024-03-08T14:12:50;5.80;;;5.40;;
86304;SDS011;76964;49.316;7.118;2024-03-08T14:15:18;5.20;;;4.90;;
86304;SDS011;76964;49.316;7.118;2024-03-08T14:17:52;5.57;;;5.23;;
86304;SDS011;76964;49.316;7.118;2024-03-08T14:20:20;5.33;;;5.03;;
86304;SDS011;76964;49.316;7.118;2024-03-08T14:22:52;5.30;;;5.07;;
86304;SDS011;76964;49.316;7.118;2024-03-08T14:25:23;5.70;;;5.33;;
86304;SDS011;76964;49.316;7.118;2024-03-08T14:27:52;5.60;;;5.30;;
86304;SDS011;76964;49.316;7.118;2024-03-08T14:30:25;5.43;;;5.13;;
86304;SDS011;76964;49.316;7.118;2024-03-08T14:33:04;5.10;;;4.90;;
86304;SDS011;76964;49.316;7.118;2024-03-08T14:35:35;5.10;;;4.80;;
86304;SDS011;76964;49.316;7.118;2024-03-08T14:38:04;5.47;;;5.17;;
86304;SDS011;76964;49.316;7.118;2024-03-08T14:40:37;5.37;;;5.07;;
86304;SDS011;76964;49.316;7.118;2024-03-08T14:43:12;5.10;;;4.80;;
86304;SDS011;76964;49.316;7.118;2024-03-08T14:45:41;5.13;;;4.93;;
86304;SDS011;76964;49.316;7.118;2024-03-08T14:48:09;5.50;;;5.20;;
86304;SDS011;76964;49.316;7.118;2024-03-08T14:50:38;5.13;;;4.93;;
86304;SDS011;76964;49.316;7.118;2024-03-08T14:53:06;5.20;;;5.00;;
86304;SDS011;76964;49.316;7.118;2024-03-08T14:55:36;5.67;;;5.37;;
86304;SDS011;76964;49.316;7.118;2024-03-08T14:58:05;5.00;;;4.80;;
86304;SDS011;76964;49.316;7.118;2024-03-08T15:00:33;5.37;;;5.07;;
86304;SDS011;76964;49.316;7.118;2024-03-08T15:03:02;5.40;;;5.10;;
86304;SDS011;76964;49.316;7.118;2024-03-08T15:05:32;5.20;;;4.97;;